sensor_id;sensor_type;location;lat;lon;timestamp;P1;durP1;ratioP1;P2;durP2;ratioP2
38940;SDS011;43236;47.208;7.518;2022-11-03T00:02:39;13.23;;;5.47;;
38940;SDS011;43236;47.208;7.518;2022-11-03T00:05:27;13.32;;;5.82;;
38940;SDS011;43236;47.208;7.518;2022-11-03T00:08:33;11.85;;;5.15;;
38940;SDS011;43236;47.208;7.518;2022-11-03T00:11:21;15.43;;;5.28;;
38940;SDS011;43236;47.208;7.518;2022-11-03T00:14:09;11.80;;;4.90;;
38940;SDS011;43236;47.208;7.518;2022-11-03T00:16:56;14.00;;;4.60;;
38940;SDS011;43236;47.208;7.518;2022-11-03T00:19:44;11.93;;;4.72;;
38940;SDS011;43236;47.208;7.518;2022-11-03T00:22:32;13.23;;;4.90;;
38940;SDS011;43236;47.208;7.518;2022-11-03T00:25:19;11.50;;;4.82;;
38940;SDS011;43236;47.208;7.518;2022-11-03T00:28:06;13.65;;;5.18;;
38940;SDS011;43236;47.208;7.518;2022-11-03T00:30:53;10.93;;;4.43;;
38940;SDS011;43236;47.208;7.518;2022-11-03T00:33:41;15.95;;;4.82;;
38940;SDS011;43236;47.208;7.518;2022-11-03T00:36:29;12.43;;;4.40;;
38940;SDS011;43236;47.208;7.518;2022-11-03T00:39:18;7.90;;;4.30;;
38940;SDS011;43236;47.208;7.518;2022-11-03T00:42:05;11.25;;;4.70;;
38940;SDS011;43236;47.208;7.518;2022-11-03T00:44:52;10.55;;;4.68;;
38940;SDS011;43236;47.208;7.518;2022-11-03T00:47:39;9.15;;;4.63;;
38940;SDS011;43236;47.208;7.518;2022-11-03T00:50:47;10.18;;;4.50;;
38940;SDS011;43236;47.208;7.518;2022-11-03T00:53:35;14.75;;;5.18;;
38940;SDS011;43236;47.208;7.518;2022-11-03T00:56:25;19.85;;;5.43;;
38940;SDS011;43236;47.208;7.518;2022-11-03T00:59:13;9.55;;;4.55;;
38940;SDS011;43236;47.208;7.518;2022-11-03T01:02:00;20.13;;;4.70;;
38940;SDS011;43236;47.208;7.518;2022-11-03T01:04:47;9.27;;;4.72;;
38940;SDS011;43236;47.208;7.518;2022-11-03T01:07:52;11.57;;;4.43;;
38940;SDS011;43236;47.208;7.518;2022-11-03T01:10:39;9.13;;;4.50;;
38940;SDS011;43236;47.208;7.518;2022-11-03T01:13:47;9.20;;;4.63;;
38940;SDS011;43236;47.208;7.518;2022-11-03T01:16:35;10.93;;;5.22;;
38940;SDS011;43236;47.208;7.518;2022-11-03T01:19:22;25.95;;;6.45;;
38940;SDS011;43236;47.208;7.518;2022-11-03T01:22:10;18.10;;;5.70;;
38940;SDS011;43236;47.208;7.518;2022-11-03T01:24:58;23.42;;;6.63;;
38940;SDS011;43236;47.208;7.518;2022-11-03T01:27:45;20.25;;;5.97;;
38940;SDS011;43236;47.208;7.518;2022-11-03T01:30:33;13.30;;;5.55;;
38940;SDS011;43236;47.208;7.518;2022-11-03T01:33:20;20.80;;;5.63;;
38940;SDS011;43236;47.208;7.518;2022-11-03T01:36:07;16.10;;;6.25;;
38940;SDS011;43236;47.208;7.518;2022-11-03T01:38:55;14.00;;;5.57;;
38940;SDS011;43236;47.208;7.518;2022-11-03T01:41:43;12.65;;;4.93;;
38940;SDS011;43236;47.208;7.518;2022-11-03T01:44:33;15.15;;;4.65;;
38940;SDS011;43236;47.208;7.518;2022-11-03T01:47:23;11.02;;;4.47;;
38940;SDS011;43236;47.208;7.518;2022-11-03T01:50:14;19.58;;;4.82;;
38940;SDS011;43236;47.208;7.518;2022-11-03T01:53:04;12.48;;;4.20;;
38940;SDS011;43236;47.208;7.518;2022-11-03T01:55:52;15.70;;;5.10;;
38940;SDS011;43236;47.208;7.518;2022-11-03T01:58:41;21.17;;;6.05;;
38940;SDS011;43236;47.208;7.518;2022-11-03T02:01:31;20.92;;;6.03;;
38940;SDS011;43236;47.208;7.518;2022-11-03T02:04:21;22.58;;;5.90;;
38940;SDS011;43236;47.208;7.518;2022-11-03T02:07:13;12.77;;;5.45;;
38940;SDS011;43236;47.208;7.518;2022-11-03T02:10:07;22.25;;;5.43;;
38940;SDS011;43236;47.208;7.518;2022-11-03T02:12:54;20.33;;;5.75;;
38940;SDS011;43236;47.208;7.518;2022-11-03T02:15:42;11.60;;;5.60;;
38940;SDS011;43236;47.208;7.518;2022-11-03T02:18:31;21.67;;;5.68;;
38940;SDS011;43236;47.208;7.518;2022-11-03T02:21:25;15.52;;;5.55;;
38940;SDS011;43236;47.208;7.518;2022-11-03T02:24:16;13.30;;;5.22;;
38940;SDS011;43236;47.208;7.518;2022-11-03T02:27:10;11.87;;;4.00;;
38940;SDS011;43236;47.208;7.518;2022-11-03T02:29:58;10.65;;;4.70;;
38940;SDS011;43236;47.208;7.518;2022-11-03T02:32:47;12.15;;;5.07;;
38940;SDS011;43236;47.208;7.518;2022-11-03T02:35:41;17.30;;;4.55;;
38940;SDS011;43236;47.208;7.518;2022-11-03T02:38:34;20.35;;;4.85;;
38940;SDS011;43236;47.208;7.518;2022-11-03T02:41:26;15.10;;;4.75;;
38940;SDS011;43236;47.208;7.518;2022-11-03T02:44:17;15.30;;;4.57;;
38940;SDS011;43236;47.208;7.518;2022-11-03T02:47:06;22.40;;;4.78;;
38940;SDS011;43236;47.208;7.518;2022-11-03T02:49:56;17.50;;;4.70;;
38940;SDS011;43236;47.208;7.518;2022-11-03T02:52:43;20.27;;;4.72;;
38940;SDS011;43236;47.208;7.518;2022-11-03T02:55:33;19.73;;;5.18;;
38940;SDS011;43236;47.208;7.518;2022-11-03T02:58:23;12.88;;;4.68;;
38940;SDS011;43236;47.208;7.518;2022-11-03T03:01:17;10.52;;;5.22;;
38940;SDS011;43236;47.208;7.518;2022-11-03T03:04:09;15.75;;;4.82;;
38940;SDS011;43236;47.208;7.518;2022-11-03T03:06:59;19.13;;;4.47;;
38940;SDS011;43236;47.208;7.518;2022-11-03T03:09:51;16.63;;;4.18;;
38940;SDS011;43236;47.208;7.518;2022-11-03T03:12:42;20.08;;;4.85;;
38940;SDS011;43236;47.208;7.518;2022-11-03T03:15:35;15.20;;;4.57;;
38940;SDS011;43236;47.208;7.518;2022-11-03T03:18:29;11.37;;;5.40;;
38940;SDS011;43236;47.208;7.518;2022-11-03T03:21:24;15.13;;;5.28;;
38940;SDS011;43236;47.208;7.518;2022-11-03T03:24:17;14.38;;;5.30;;
38940;SDS011;43236;47.208;7.518;2022-11-03T03:27:09;17.80;;;5.22;;
38940;SDS011;43236;47.208;7.518;2022-11-03T03:30:00;14.18;;;5.63;;
38940;SDS011;43236;47.208;7.518;2022-11-03T03:32:50;23.60;;;6.15;;
38940;SDS011;43236;47.208;7.518;2022-11-03T03:35:41;24.48;;;6.40;;
38940;SDS011;43236;47.208;7.518;2022-11-03T03:38:32;21.15;;;6.13;;
38940;SDS011;43236;47.208;7.518;2022-11-03T03:41:25;14.40;;;6.55;;
38940;SDS011;43236;47.208;7.518;2022-11-03T03:44:13;20.33;;;5.90;;
38940;SDS011;43236;47.208;7.518;2022-11-03T03:47:02;28.35;;;5.47;;
38940;SDS011;43236;47.208;7.518;2022-11-03T03:49:53;22.33;;;6.05;;
38940;SDS011;43236;47.208;7.518;2022-11-03T03:52:42;14.55;;;6.07;;
38940;SDS011;43236;47.208;7.518;2022-11-03T03:55:33;13.57;;;5.45;;
38940;SDS011;43236;47.208;7.518;2022-11-03T03:58:22;20.55;;;5.78;;
38940;SDS011;43236;47.208;7.518;2022-11-03T04:01:09;12.63;;;5.35;;
38940;SDS011;43236;47.208;7.518;2022-11-03T04:03:57;19.67;;;5.88;;
38940;SDS011;43236;47.208;7.518;2022-11-03T04:06:44;20.45;;;5.85;;
38940;SDS011;43236;47.208;7.518;2022-11-03T04:09:32;13.88;;;5.90;;
38940;SDS011;43236;47.208;7.518;2022-11-03T04:12:19;20.17;;;6.00;;
38940;SDS011;43236;47.208;7.518;2022-11-03T04:15:24;24.40;;;6.53;;
38940;SDS011;43236;47.208;7.518;2022-11-03T04:18:28;16.27;;;5.43;;
38940;SDS011;43236;47.208;7.518;2022-11-03T04:21:45;12.88;;;6.00;;
38940;SDS011;43236;47.208;7.518;2022-11-03T04:27:39;25.67;;;5.65;;
38940;SDS011;43236;47.208;7.518;2022-11-03T04:30:26;49.72;;;5.80;;
38940;SDS011;43236;47.208;7.518;2022-11-03T04:33:14;30.30;;;5.32;;
38940;SDS011;43236;47.208;7.518;2022-11-03T04:36:04;27.10;;;5.05;;
38940;SDS011;43236;47.208;7.518;2022-11-03T04:38:56;18.20;;;5.57;;
38940;SDS011;43236;47.208;7.518;2022-11-03T04:41:45;28.02;;;6.20;;
38940;SDS011;43236;47.208;7.518;2022-11-03T04:44:32;20.65;;;6.43;;
38940;SDS011;43236;47.208;7.518;2022-11-03T04:47:19;25.33;;;5.88;;
38940;SDS011;43236;47.208;7.518;2022-11-03T04:50:08;23.40;;;5.90;;
38940;SDS011;43236;47.208;7.518;2022-11-03T04:53:04;20.80;;;5.63;;
38940;SDS011;43236;47.208;7.518;2022-11-03T04:55:57;18.75;;;5.45;;
38940;SDS011;43236;47.208;7.518;2022-11-03T04:58:47;21.63;;;6.05;;
38940;SDS011;43236;47.208;7.518;2022-11-03T05:01:34;20.80;;;5.35;;
38940;SDS011;43236;47.208;7.518;2022-11-03T05:04:21;19.90;;;5.40;;
38940;SDS011;43236;47.208;7.518;2022-11-03T05:07:12;21.83;;;5.85;;
38940;SDS011;43236;47.208;7.518;2022-11-03T05:10:10;22.42;;;5.40;;
38940;SDS011;43236;47.208;7.518;2022-11-03T05:13:01;19.70;;;5.55;;
38940;SDS011;43236;47.208;7.518;2022-11-03T05:15:50;12.75;;;5.78;;
38940;SDS011;43236;47.208;7.518;2022-11-03T05:18:39;14.60;;;5.60;;
38940;SDS011;43236;47.208;7.518;2022-11-03T05:21:28;17.67;;;5.18;;
38940;SDS011;43236;47.208;7.518;2022-11-03T05:24:15;19.40;;;5.22;;
38940;SDS011;43236;47.208;7.518;2022-11-03T05:27:04;14.82;;;5.32;;
38940;SDS011;43236;47.208;7.518;2022-11-03T05:29:59;16.80;;;5.07;;
38940;SDS011;43236;47.208;7.518;2022-11-03T05:32:47;16.88;;;5.75;;
38940;SDS011;43236;47.208;7.518;2022-11-03T05:35:34;12.90;;;5.07;;
38940;SDS011;43236;47.208;7.518;2022-11-03T05:38:22;21.38;;;5.88;;
38940;SDS011;43236;47.208;7.518;2022-11-03T05:41:11;17.65;;;5.68;;
38940;SDS011;43236;47.208;7.518;2022-11-03T05:44:03;14.73;;;5.95;;
38940;SDS011;43236;47.208;7.518;2022-11-03T05:47:07;13.27;;;6.15;;
38940;SDS011;43236;47.208;7.518;2022-11-03T05:52:57;17.98;;;5.63;;
38940;SDS011;43236;47.208;7.518;2022-11-03T05:55:49;16.50;;;5.63;;
38940;SDS011;43236;47.208;7.518;2022-11-03T05:58:36;17.17;;;6.15;;
38940;SDS011;43236;47.208;7.518;2022-11-03T06:01:25;22.52;;;5.88;;
38940;SDS011;43236;47.208;7.518;2022-11-03T06:04:17;17.08;;;6.35;;
38940;SDS011;43236;47.208;7.518;2022-11-03T06:07:10;14.98;;;6.10;;
38940;SDS011;43236;47.208;7.518;2022-11-03T06:10:14;12.93;;;5.93;;
38940;SDS011;43236;47.208;7.518;2022-11-03T06:13:09;19.75;;;6.13;;
38940;SDS011;43236;47.208;7.518;2022-11-03T06:16:00;18.88;;;6.47;;
38940;SDS011;43236;47.208;7.518;2022-11-03T06:18:49;16.83;;;5.78;;
38940;SDS011;43236;47.208;7.518;2022-11-03T06:21:36;14.15;;;5.95;;
38940;SDS011;43236;47.208;7.518;2022-11-03T06:24:25;13.23;;;6.18;;
38940;SDS011;43236;47.208;7.518;2022-11-03T06:27:17;23.13;;;6.20;;
38940;SDS011;43236;47.208;7.518;2022-11-03T06:30:13;13.45;;;6.65;;
38940;SDS011;43236;47.208;7.518;2022-11-03T06:33:09;10.43;;;5.90;;
38940;SDS011;43236;47.208;7.518;2022-11-03T06:36:01;19.02;;;6.38;;
38940;SDS011;43236;47.208;7.518;2022-11-03T06:38:56;12.82;;;6.03;;
38940;SDS011;43236;47.208;7.518;2022-11-03T06:41:48;17.17;;;6.82;;
38940;SDS011;43236;47.208;7.518;2022-11-03T06:44:35;21.80;;;6.68;;
38940;SDS011;43236;47.208;7.518;2022-11-03T06:47:26;28.45;;;8.02;;
38940;SDS011;43236;47.208;7.518;2022-11-03T06:50:18;16.70;;;7.43;;
38940;SDS011;43236;47.208;7.518;2022-11-03T06:53:09;14.20;;;6.85;;
38940;SDS011;43236;47.208;7.518;2022-11-03T06:55:57;19.52;;;7.63;;
38940;SDS011;43236;47.208;7.518;2022-11-03T06:58:47;10.30;;;6.40;;
38940;SDS011;43236;47.208;7.518;2022-11-03T07:01:35;18.83;;;6.80;;
38940;SDS011;43236;47.208;7.518;2022-11-03T07:04:23;16.67;;;7.20;;
38940;SDS011;43236;47.208;7.518;2022-11-03T07:07:13;23.23;;;9.10;;
38940;SDS011;43236;47.208;7.518;2022-11-03T07:10:00;19.38;;;8.65;;
38940;SDS011;43236;47.208;7.518;2022-11-03T07:12:47;18.27;;;7.97;;
38940;SDS011;43236;47.208;7.518;2022-11-03T07:15:36;21.17;;;7.80;;
38940;SDS011;43236;47.208;7.518;2022-11-03T07:18:24;21.73;;;7.75;;
38940;SDS011;43236;47.208;7.518;2022-11-03T07:21:21;22.73;;;8.68;;
38940;SDS011;43236;47.208;7.518;2022-11-03T07:24:14;14.23;;;7.13;;
38940;SDS011;43236;47.208;7.518;2022-11-03T07:27:06;20.77;;;8.65;;
38940;SDS011;43236;47.208;7.518;2022-11-03T07:30:05;17.27;;;8.10;;
38940;SDS011;43236;47.208;7.518;2022-11-03T07:33:08;24.05;;;8.35;;
38940;SDS011;43236;47.208;7.518;2022-11-03T07:35:59;23.13;;;8.77;;
38940;SDS011;43236;47.208;7.518;2022-11-03T07:38:48;21.10;;;9.65;;
38940;SDS011;43236;47.208;7.518;2022-11-03T07:41:37;26.10;;;9.57;;
38940;SDS011;43236;47.208;7.518;2022-11-03T07:44:24;25.98;;;9.05;;
38940;SDS011;43236;47.208;7.518;2022-11-03T07:47:12;28.02;;;9.02;;
38940;SDS011;43236;47.208;7.518;2022-11-03T07:50:05;18.35;;;9.07;;
38940;SDS011;43236;47.208;7.518;2022-11-03T07:53:00;23.30;;;9.15;;
38940;SDS011;43236;47.208;7.518;2022-11-03T07:55:47;24.15;;;9.00;;
38940;SDS011;43236;47.208;7.518;2022-11-03T07:58:35;17.90;;;9.73;;
38940;SDS011;43236;47.208;7.518;2022-11-03T08:01:25;15.20;;;8.40;;
38940;SDS011;43236;47.208;7.518;2022-11-03T08:04:15;24.75;;;8.88;;
38940;SDS011;43236;47.208;7.518;2022-11-03T08:07:06;14.57;;;8.50;;
38940;SDS011;43236;47.208;7.518;2022-11-03T08:09:53;18.35;;;8.55;;
38940;SDS011;43236;47.208;7.518;2022-11-03T08:12:40;18.23;;;7.90;;
38940;SDS011;43236;47.208;7.518;2022-11-03T08:15:27;19.75;;;8.32;;
38940;SDS011;43236;47.208;7.518;2022-11-03T08:18:14;20.65;;;8.68;;
38940;SDS011;43236;47.208;7.518;2022-11-03T08:21:01;17.77;;;9.07;;
38940;SDS011;43236;47.208;7.518;2022-11-03T08:23:50;15.32;;;8.45;;
38940;SDS011;43236;47.208;7.518;2022-11-03T08:26:37;16.65;;;8.32;;
38940;SDS011;43236;47.208;7.518;2022-11-03T08:29:24;17.25;;;7.95;;
38940;SDS011;43236;47.208;7.518;2022-11-03T08:32:12;19.75;;;8.00;;
38940;SDS011;43236;47.208;7.518;2022-11-03T08:34:59;19.80;;;7.13;;
38940;SDS011;43236;47.208;7.518;2022-11-03T08:37:46;16.08;;;7.78;;
38940;SDS011;43236;47.208;7.518;2022-11-03T08:40:35;19.27;;;8.32;;
38940;SDS011;43236;47.208;7.518;2022-11-03T08:43:22;15.98;;;8.23;;
38940;SDS011;43236;47.208;7.518;2022-11-03T08:46:09;16.45;;;8.70;;
38940;SDS011;43236;47.208;7.518;2022-11-03T08:48:56;14.27;;;8.13;;
38940;SDS011;43236;47.208;7.518;2022-11-03T08:51:43;16.52;;;8.07;;
38940;SDS011;43236;47.208;7.518;2022-11-03T08:54:30;15.45;;;8.60;;
38940;SDS011;43236;47.208;7.518;2022-11-03T08:57:19;16.08;;;8.93;;
38940;SDS011;43236;47.208;7.518;2022-11-03T09:00:06;16.38;;;9.45;;
38940;SDS011;43236;47.208;7.518;2022-11-03T09:02:54;16.83;;;8.75;;
38940;SDS011;43236;47.208;7.518;2022-11-03T09:05:41;14.90;;;8.55;;
38940;SDS011;43236;47.208;7.518;2022-11-03T09:08:29;19.50;;;9.25;;
38940;SDS011;43236;47.208;7.518;2022-11-03T09:11:16;20.38;;;9.60;;
38940;SDS011;43236;47.208;7.518;2022-11-03T09:14:04;18.33;;;8.95;;
38940;SDS011;43236;47.208;7.518;2022-11-03T09:16:51;20.25;;;10.20;;
38940;SDS011;43236;47.208;7.518;2022-11-03T09:19:39;19.38;;;8.90;;
38940;SDS011;43236;47.208;7.518;2022-11-03T09:22:26;21.00;;;9.80;;
38940;SDS011;43236;47.208;7.518;2022-11-03T09:25:13;19.85;;;9.65;;
38940;SDS011;43236;47.208;7.518;2022-11-03T09:28:00;18.55;;;9.90;;
38940;SDS011;43236;47.208;7.518;2022-11-03T09:30:48;19.40;;;10.38;;
38940;SDS011;43236;47.208;7.518;2022-11-03T09:33:35;22.83;;;11.35;;
38940;SDS011;43236;47.208;7.518;2022-11-03T09:36:22;22.10;;;10.55;;
38940;SDS011;43236;47.208;7.518;2022-11-03T09:39:10;22.48;;;11.40;;
38940;SDS011;43236;47.208;7.518;2022-11-03T09:41:57;24.17;;;11.52;;
38940;SDS011;43236;47.208;7.518;2022-11-03T09:44:44;27.60;;;12.07;;
38940;SDS011;43236;47.208;7.518;2022-11-03T09:47:35;24.60;;;11.63;;
38940;SDS011;43236;47.208;7.518;2022-11-03T09:50:24;24.95;;;12.43;;
38940;SDS011;43236;47.208;7.518;2022-11-03T09:53:11;27.85;;;12.23;;
38940;SDS011;43236;47.208;7.518;2022-11-03T09:55:58;25.92;;;12.93;;
38940;SDS011;43236;47.208;7.518;2022-11-03T09:58:45;32.17;;;13.50;;
38940;SDS011;43236;47.208;7.518;2022-11-03T10:01:33;30.02;;;12.85;;
38940;SDS011;43236;47.208;7.518;2022-11-03T10:04:23;27.15;;;12.30;;
38940;SDS011;43236;47.208;7.518;2022-11-03T10:07:12;27.83;;;13.80;;
38940;SDS011;43236;47.208;7.518;2022-11-03T10:09:59;23.33;;;12.20;;
38940;SDS011;43236;47.208;7.518;2022-11-03T10:12:47;26.15;;;12.57;;
38940;SDS011;43236;47.208;7.518;2022-11-03T10:15:36;25.25;;;12.68;;
38940;SDS011;43236;47.208;7.518;2022-11-03T10:18:26;24.60;;;13.27;;
38940;SDS011;43236;47.208;7.518;2022-11-03T10:21:16;30.70;;;13.52;;
38940;SDS011;43236;47.208;7.518;2022-11-03T10:24:04;26.58;;;12.60;;
38940;SDS011;43236;47.208;7.518;2022-11-03T10:26:52;27.45;;;12.52;;
38940;SDS011;43236;47.208;7.518;2022-11-03T10:29:40;27.88;;;14.30;;
38940;SDS011;43236;47.208;7.518;2022-11-03T10:32:28;25.58;;;13.43;;
38940;SDS011;43236;47.208;7.518;2022-11-03T10:35:30;24.40;;;13.15;;
38940;SDS011;43236;47.208;7.518;2022-11-03T10:38:23;25.38;;;12.55;;
38940;SDS011;43236;47.208;7.518;2022-11-03T10:41:13;25.88;;;12.55;;
38940;SDS011;43236;47.208;7.518;2022-11-03T10:44:03;27.00;;;12.60;;
38940;SDS011;43236;47.208;7.518;2022-11-03T10:46:55;22.02;;;11.88;;
38940;SDS011;43236;47.208;7.518;2022-11-03T10:49:44;22.75;;;12.50;;
38940;SDS011;43236;47.208;7.518;2022-11-03T10:52:31;27.15;;;13.25;;
38940;SDS011;43236;47.208;7.518;2022-11-03T10:55:20;24.98;;;12.45;;
38940;SDS011;43236;47.208;7.518;2022-11-03T10:58:08;25.48;;;12.63;;
38940;SDS011;43236;47.208;7.518;2022-11-03T11:00:56;30.27;;;12.80;;
38940;SDS011;43236;47.208;7.518;2022-11-03T11:03:43;24.42;;;12.73;;
38940;SDS011;43236;47.208;7.518;2022-11-03T11:06:30;26.58;;;13.30;;
38940;SDS011;43236;47.208;7.518;2022-11-03T11:09:22;28.63;;;12.65;;
38940;SDS011;43236;47.208;7.518;2022-11-03T11:12:15;27.67;;;13.10;;
38940;SDS011;43236;47.208;7.518;2022-11-03T11:15:38;28.25;;;13.50;;
38940;SDS011;43236;47.208;7.518;2022-11-03T11:24:59;25.52;;;13.52;;
38940;SDS011;43236;47.208;7.518;2022-11-03T11:37:30;28.25;;;12.75;;
38940;SDS011;43236;47.208;7.518;2022-11-03T11:43:38;25.85;;;12.73;;
38940;SDS011;43236;47.208;7.518;2022-11-03T11:46:34;27.95;;;12.32;;
38940;SDS011;43236;47.208;7.518;2022-11-03T11:49:25;23.05;;;11.48;;
38940;SDS011;43236;47.208;7.518;2022-11-03T11:52:12;24.30;;;11.48;;
38940;SDS011;43236;47.208;7.518;2022-11-03T11:54:59;23.88;;;10.48;;
38940;SDS011;43236;47.208;7.518;2022-11-03T11:57:47;22.35;;;10.77;;
38940;SDS011;43236;47.208;7.518;2022-11-03T12:00:35;25.92;;;10.70;;
38940;SDS011;43236;47.208;7.518;2022-11-03T12:03:24;24.23;;;11.23;;
38940;SDS011;43236;47.208;7.518;2022-11-03T12:06:17;27.42;;;12.00;;
38940;SDS011;43236;47.208;7.518;2022-11-03T12:09:18;22.42;;;11.45;;
38940;SDS011;43236;47.208;7.518;2022-11-03T12:12:06;21.27;;;10.63;;
38940;SDS011;43236;47.208;7.518;2022-11-03T12:14:53;22.80;;;11.32;;
38940;SDS011;43236;47.208;7.518;2022-11-03T12:17:41;22.83;;;10.80;;
38940;SDS011;43236;47.208;7.518;2022-11-03T12:20:35;18.58;;;10.10;;
38940;SDS011;43236;47.208;7.518;2022-11-03T12:23:39;19.77;;;10.45;;
38940;SDS011;43236;47.208;7.518;2022-11-03T12:26:39;19.70;;;9.82;;
38940;SDS011;43236;47.208;7.518;2022-11-03T12:29:26;20.77;;;10.45;;
38940;SDS011;43236;47.208;7.518;2022-11-03T12:32:13;20.80;;;9.68;;
38940;SDS011;43236;47.208;7.518;2022-11-03T12:35:01;22.30;;;10.15;;
38940;SDS011;43236;47.208;7.518;2022-11-03T12:37:49;22.15;;;11.77;;
38940;SDS011;43236;47.208;7.518;2022-11-03T12:40:36;25.92;;;11.90;;
38940;SDS011;43236;47.208;7.518;2022-11-03T12:43:23;19.83;;;9.95;;
38940;SDS011;43236;47.208;7.518;2022-11-03T12:46:10;26.80;;;11.55;;
38940;SDS011;43236;47.208;7.518;2022-11-03T12:48:57;24.60;;;11.82;;
38940;SDS011;43236;47.208;7.518;2022-11-03T12:51:45;18.65;;;11.02;;
38940;SDS011;43236;47.208;7.518;2022-11-03T12:54:33;24.33;;;11.45;;
38940;SDS011;43236;47.208;7.518;2022-11-03T12:57:20;25.23;;;11.32;;
38940;SDS011;43236;47.208;7.518;2022-11-03T13:00:07;23.27;;;11.68;;
38940;SDS011;43236;47.208;7.518;2022-11-03T13:02:55;23.33;;;10.32;;
38940;SDS011;43236;47.208;7.518;2022-11-03T13:05:42;24.27;;;10.60;;
38940;SDS011;43236;47.208;7.518;2022-11-03T13:08:30;22.23;;;11.82;;
38940;SDS011;43236;47.208;7.518;2022-11-03T13:11:17;22.50;;;10.98;;
38940;SDS011;43236;47.208;7.518;2022-11-03T13:17:10;23.83;;;10.73;;
38940;SDS011;43236;47.208;7.518;2022-11-03T13:19:57;21.08;;;11.45;;
38940;SDS011;43236;47.208;7.518;2022-11-03T13:22:44;22.30;;;10.95;;
38940;SDS011;43236;47.208;7.518;2022-11-03T13:25:33;25.33;;;11.55;;
38940;SDS011;43236;47.208;7.518;2022-11-03T13:28:20;26.55;;;12.35;;
38940;SDS011;43236;47.208;7.518;2022-11-03T13:31:07;27.25;;;12.02;;
38940;SDS011;43236;47.208;7.518;2022-11-03T13:33:55;22.30;;;11.93;;
38940;SDS011;43236;47.208;7.518;2022-11-03T13:36:42;25.75;;;12.05;;
38940;SDS011;43236;47.208;7.518;2022-11-03T13:39:29;27.42;;;11.93;;
38940;SDS011;43236;47.208;7.518;2022-11-03T13:42:17;25.17;;;12.23;;
38940;SDS011;43236;47.208;7.518;2022-11-03T13:45:05;21.40;;;11.82;;
38940;SDS011;43236;47.208;7.518;2022-11-03T13:47:52;23.55;;;11.30;;
38940;SDS011;43236;47.208;7.518;2022-11-03T13:50:39;29.13;;;11.85;;
38940;SDS011;43236;47.208;7.518;2022-11-03T13:53:27;23.83;;;11.50;;
38940;SDS011;43236;47.208;7.518;2022-11-03T13:56:14;21.80;;;11.68;;
38940;SDS011;43236;47.208;7.518;2022-11-03T13:59:02;26.58;;;12.00;;
38940;SDS011;43236;47.208;7.518;2022-11-03T14:01:49;23.67;;;12.13;;
38940;SDS011;43236;47.208;7.518;2022-11-03T14:04:36;22.35;;;11.25;;
38940;SDS011;43236;47.208;7.518;2022-11-03T14:07:24;19.88;;;10.52;;
38940;SDS011;43236;47.208;7.518;2022-11-03T14:10:11;22.02;;;10.45;;
38940;SDS011;43236;47.208;7.518;2022-11-03T14:12:58;23.67;;;10.38;;
38940;SDS011;43236;47.208;7.518;2022-11-03T14:15:46;26.83;;;11.10;;
38940;SDS011;43236;47.208;7.518;2022-11-03T14:18:33;22.08;;;10.95;;
38940;SDS011;43236;47.208;7.518;2022-11-03T14:21:21;25.77;;;11.57;;
38940;SDS011;43236;47.208;7.518;2022-11-03T14:24:08;26.77;;;11.05;;
38940;SDS011;43236;47.208;7.518;2022-11-03T14:26:55;23.42;;;10.38;;
38940;SDS011;43236;47.208;7.518;2022-11-03T14:29:42;21.30;;;10.38;;
38940;SDS011;43236;47.208;7.518;2022-11-03T14:32:30;23.52;;;11.50;;
38940;SDS011;43236;47.208;7.518;2022-11-03T14:35:17;28.23;;;11.65;;
38940;SDS011;43236;47.208;7.518;2022-11-03T14:38:06;26.95;;;12.10;;
38940;SDS011;43236;47.208;7.518;2022-11-03T14:40:53;29.20;;;13.60;;
38940;SDS011;43236;47.208;7.518;2022-11-03T14:43:58;23.52;;;12.63;;
38940;SDS011;43236;47.208;7.518;2022-11-03T14:46:45;24.15;;;12.38;;
38940;SDS011;43236;47.208;7.518;2022-11-03T14:49:33;25.42;;;12.80;;
38940;SDS011;43236;47.208;7.518;2022-11-03T14:52:21;27.92;;;13.30;;
38940;SDS011;43236;47.208;7.518;2022-11-03T14:55:08;27.80;;;13.02;;
38940;SDS011;43236;47.208;7.518;2022-11-03T14:57:55;26.75;;;12.45;;
38940;SDS011;43236;47.208;7.518;2022-11-03T15:00:42;24.23;;;12.73;;
38940;SDS011;43236;47.208;7.518;2022-11-03T15:03:29;31.80;;;13.13;;
38940;SDS011;43236;47.208;7.518;2022-11-03T15:06:17;24.45;;;13.10;;
38940;SDS011;43236;47.208;7.518;2022-11-03T15:09:06;23.73;;;12.88;;
38940;SDS011;43236;47.208;7.518;2022-11-03T15:11:53;34.13;;;13.02;;
38940;SDS011;43236;47.208;7.518;2022-11-03T15:14:40;23.50;;;11.98;;
38940;SDS011;43236;47.208;7.518;2022-11-03T15:17:27;30.50;;;14.23;;
38940;SDS011;43236;47.208;7.518;2022-11-03T15:20:15;27.92;;;13.23;;
38940;SDS011;43236;47.208;7.518;2022-11-03T15:23:03;29.80;;;13.35;;
38940;SDS011;43236;47.208;7.518;2022-11-03T15:25:52;36.92;;;14.73;;
38940;SDS011;43236;47.208;7.518;2022-11-03T15:28:39;23.52;;;12.85;;
38940;SDS011;43236;47.208;7.518;2022-11-03T15:31:26;26.02;;;14.05;;
38940;SDS011;43236;47.208;7.518;2022-11-03T15:34:14;33.00;;;13.30;;
38940;SDS011;43236;47.208;7.518;2022-11-03T15:37:01;33.15;;;14.55;;
38940;SDS011;43236;47.208;7.518;2022-11-03T15:39:49;31.98;;;14.85;;
38940;SDS011;43236;47.208;7.518;2022-11-03T15:42:37;25.83;;;13.40;;
38940;SDS011;43236;47.208;7.518;2022-11-03T15:45:24;31.05;;;14.50;;
38940;SDS011;43236;47.208;7.518;2022-11-03T15:48:11;30.60;;;13.63;;
38940;SDS011;43236;47.208;7.518;2022-11-03T15:50:59;35.75;;;14.27;;
38940;SDS011;43236;47.208;7.518;2022-11-03T15:53:46;31.35;;;13.77;;
38940;SDS011;43236;47.208;7.518;2022-11-03T15:56:34;32.60;;;14.48;;
38940;SDS011;43236;47.208;7.518;2022-11-03T15:59:21;33.85;;;15.80;;
38940;SDS011;43236;47.208;7.518;2022-11-03T16:02:08;30.63;;;14.95;;
38940;SDS011;43236;47.208;7.518;2022-11-03T16:04:55;31.90;;;14.68;;
38940;SDS011;43236;47.208;7.518;2022-11-03T16:07:43;32.97;;;14.70;;
38940;SDS011;43236;47.208;7.518;2022-11-03T16:10:30;31.42;;;16.35;;
38940;SDS011;43236;47.208;7.518;2022-11-03T16:13:18;33.80;;;15.27;;
38940;SDS011;43236;47.208;7.518;2022-11-03T16:16:05;30.40;;;14.90;;
38940;SDS011;43236;47.208;7.518;2022-11-03T16:18:52;35.53;;;14.65;;
38940;SDS011;43236;47.208;7.518;2022-11-03T16:21:41;29.75;;;14.02;;
38940;SDS011;43236;47.208;7.518;2022-11-03T16:24:28;29.98;;;14.80;;
38940;SDS011;43236;47.208;7.518;2022-11-03T16:27:15;36.00;;;18.17;;
38940;SDS011;43236;47.208;7.518;2022-11-03T16:30:04;30.55;;;14.55;;
38940;SDS011;43236;47.208;7.518;2022-11-03T16:32:52;34.10;;;16.17;;
38940;SDS011;43236;47.208;7.518;2022-11-03T16:35:40;33.80;;;16.23;;
38940;SDS011;43236;47.208;7.518;2022-11-03T16:38:27;34.80;;;16.50;;
38940;SDS011;43236;47.208;7.518;2022-11-03T16:41:14;35.22;;;17.52;;
38940;SDS011;43236;47.208;7.518;2022-11-03T16:44:01;40.22;;;17.98;;
38940;SDS011;43236;47.208;7.518;2022-11-03T16:46:50;36.88;;;17.50;;
38940;SDS011;43236;47.208;7.518;2022-11-03T16:49:37;42.03;;;18.55;;
38940;SDS011;43236;47.208;7.518;2022-11-03T16:52:27;35.50;;;17.80;;
38940;SDS011;43236;47.208;7.518;2022-11-03T16:55:14;36.58;;;17.27;;
38940;SDS011;43236;47.208;7.518;2022-11-03T16:58:02;43.25;;;17.42;;
38940;SDS011;43236;47.208;7.518;2022-11-03T17:00:49;32.60;;;17.25;;
38940;SDS011;43236;47.208;7.518;2022-11-03T17:03:37;39.00;;;19.90;;
38940;SDS011;43236;47.208;7.518;2022-11-03T17:06:24;39.42;;;19.70;;
38940;SDS011;43236;47.208;7.518;2022-11-03T17:09:14;36.50;;;20.05;;